<?xml version="1.0" encoding="utf-8"?>
<gpx xmlns:xsi="http://www.w3.org/2001/XMLSchema-instance" xmlns:xsd="http://www.w3.org/2001/XMLSchema" version="1.1" creator="Shapelink.com" xmlns="http://www.topografix.com/GPX/1/1" xmlns:gpxtpx="http://www.garmin.com/xmlschemas/TrackPointExtension/v1">
  <metadata>
    <name>Löpning 8.01 km, 2018-07-22</name>
    <desc></desc>
    <author><name>Stefan Östlund</name></author> 
    <time>2018-07-22T08:19:50Z</time>
  </metadata>
  <trk>
    <name>Löpning 8.01 km, 2018-07-22</name>
    <trkseg>
      <trkpt lat="63.854907012457" lon="20.326583508101">
        <ele>60.4</ele>
        <time>2018-07-22T08:19:50Z</time>
      </trkpt>
      <trkpt lat="63.854939198953" lon="20.326677133924">
        <ele>58.8</ele>
        <time>2018-07-22T08:19:52Z</time>
      </trkpt>
      <trkpt lat="63.855017234442" lon="20.326954658633">
        <ele>58.4</ele>
        <time>2018-07-22T08:19:58Z</time>
      </trkpt>
      <trkpt lat="63.855022850315" lon="20.327275517765">
        <ele>58.2</ele>
        <time>2018-07-22T08:20:04Z</time>
      </trkpt>
      <trkpt lat="63.855009774551" lon="20.327582965857">
        <ele>58.2</ele>
        <time>2018-07-22T08:20:10Z</time>
      </trkpt>
      <trkpt lat="63.854999464814" lon="20.32790374117">
        <ele>58</ele>
        <time>2018-07-22T08:20:16Z</time>
      </trkpt>
      <trkpt lat="63.854984545032" lon="20.328194844557">
        <ele>58.2</ele>
        <time>2018-07-22T08:20:22Z</time>
      </trkpt>
      <trkpt lat="63.854983203928" lon="20.328494413663">
        <ele>58.2</ele>
        <time>2018-07-22T08:20:28Z</time>
      </trkpt>
      <trkpt lat="63.85496711068" lon="20.328688119372">
        <ele>58</ele>
        <time>2018-07-22T08:20:32Z</time>
      </trkpt>
      <trkpt lat="63.854840963085" lon="20.32873522565">
        <ele>58.4</ele>
        <time>2018-07-22T08:20:38Z</time>
      </trkpt>
      <trkpt lat="63.854696794405" lon="20.328704631715">
        <ele>58.6</ele>
        <time>2018-07-22T08:20:44Z</time>
      </trkpt>
      <trkpt lat="63.854560001797" lon="20.3286555976">
        <ele>58.4</ele>
        <time>2018-07-22T08:20:50Z</time>
      </trkpt>
      <trkpt lat="63.854535694287" lon="20.328641516008">
        <ele>58.4</ele>
        <time>2018-07-22T08:20:51Z</time>
      </trkpt>
      <trkpt lat="63.854406864484" lon="20.32871007995">
        <ele>58.2</ele>
        <time>2018-07-22T08:20:57Z</time>
      </trkpt>
      <trkpt lat="63.854237131009" lon="20.328846872558">
        <ele>58.6</ele>
        <time>2018-07-22T08:21:03Z</time>
      </trkpt>
      <trkpt lat="63.85408030566" lon="20.328848129843">
        <ele>58.8</ele>
        <time>2018-07-22T08:21:09Z</time>
      </trkpt>
      <trkpt lat="63.853943010138" lon="20.328894146474">
        <ele>58.8</ele>
        <time>2018-07-22T08:21:15Z</time>
      </trkpt>
      <trkpt lat="63.853805463159" lon="20.328837149554">
        <ele>59</ele>
        <time>2018-07-22T08:21:21Z</time>
      </trkpt>
      <trkpt lat="63.85366037247" lon="20.328809489284">
        <ele>59.4</ele>
        <time>2018-07-22T08:21:27Z</time>
      </trkpt>
      <trkpt lat="63.85351368922" lon="20.328752576183">
        <ele>59.8</ele>
        <time>2018-07-22T08:21:33Z</time>
      </trkpt>
      <trkpt lat="63.853492483013" lon="20.328744026645">
        <ele>59.8</ele>
        <time>2018-07-22T08:21:34Z</time>
      </trkpt>
      <trkpt lat="63.853357450604" lon="20.328723239533">
        <ele>60</ele>
        <time>2018-07-22T08:21:40Z</time>
      </trkpt>
      <trkpt lat="63.853207582232" lon="20.328706811009">
        <ele>60.2</ele>
        <time>2018-07-22T08:21:46Z</time>
      </trkpt>
      <trkpt lat="63.853126277802" lon="20.328706978647">
        <ele>60.2</ele>
        <time>2018-07-22T08:21:49Z</time>
      </trkpt>
      <trkpt lat="63.852980935656" lon="20.328671271753">
        <ele>59.8</ele>
        <time>2018-07-22T08:21:55Z</time>
      </trkpt>
      <trkpt lat="63.852830983465" lon="20.328642857112">
        <ele>60.2</ele>
        <time>2018-07-22T08:22:01Z</time>
      </trkpt>
      <trkpt lat="63.852690670459" lon="20.328633720841">
        <ele>60.4</ele>
        <time>2018-07-22T08:22:07Z</time>
      </trkpt>
      <trkpt lat="63.85254977072" lon="20.32861955543">
        <ele>60.2</ele>
        <time>2018-07-22T08:22:13Z</time>
      </trkpt>
      <trkpt lat="63.852407948972" lon="20.328579741405">
        <ele>60.6</ele>
        <time>2018-07-22T08:22:19Z</time>
      </trkpt>
      <trkpt lat="63.852313317321" lon="20.3285298691">
        <ele>61</ele>
        <time>2018-07-22T08:22:23Z</time>
      </trkpt>
      <trkpt lat="63.852182056767" lon="20.328475302931">
        <ele>61</ele>
        <time>2018-07-22T08:22:29Z</time>
      </trkpt>
      <trkpt lat="63.852038139544" lon="20.328453426172">
        <ele>61.4</ele>
        <time>2018-07-22T08:22:35Z</time>
      </trkpt>
      <trkpt lat="63.851961109883" lon="20.328587201296">
        <ele>61.6</ele>
        <time>2018-07-22T08:22:41Z</time>
      </trkpt>
      <trkpt lat="63.851895395787" lon="20.328852488431">
        <ele>61.8</ele>
        <time>2018-07-22T08:22:47Z</time>
      </trkpt>
      <trkpt lat="63.851887935896" lon="20.32889448175">
        <ele>62</ele>
        <time>2018-07-22T08:22:48Z</time>
      </trkpt>
      <trkpt lat="63.851875363046" lon="20.328999087862">
        <ele>62</ele>
        <time>2018-07-22T08:22:50Z</time>
      </trkpt>
      <trkpt lat="63.85186999863" lon="20.329314163483">
        <ele>62</ele>
        <time>2018-07-22T08:22:56Z</time>
      </trkpt>
      <trkpt lat="63.851893132674" lon="20.329660419772">
        <ele>61.8</ele>
        <time>2018-07-22T08:23:02Z</time>
      </trkpt>
      <trkpt lat="63.851930013034" lon="20.329950768788">
        <ele>62</ele>
        <time>2018-07-22T08:23:08Z</time>
      </trkpt>
      <trkpt lat="63.852024057952" lon="20.330170877482">
        <ele>62.6</ele>
        <time>2018-07-22T08:23:14Z</time>
      </trkpt>
      <trkpt lat="63.852074097895" lon="20.330309095013">
        <ele>63</ele>
        <time>2018-07-22T08:23:18Z</time>
      </trkpt>
      <trkpt lat="63.852183146414" lon="20.330519313065">
        <ele>63.2</ele>
        <time>2018-07-22T08:23:24Z</time>
      </trkpt>
      <trkpt lat="63.8522748444" lon="20.330773536092">
        <ele>63.8</ele>
        <time>2018-07-22T08:23:30Z</time>
      </trkpt>
      <trkpt lat="63.852314826063" lon="20.330859115291">
        <ele>64.2</ele>
        <time>2018-07-22T08:23:32Z</time>
      </trkpt>
      <trkpt lat="63.852405182945" lon="20.331143261701">
        <ele>64.8</ele>
        <time>2018-07-22T08:23:38Z</time>
      </trkpt>
      <trkpt lat="63.852453881784" lon="20.331293716806">
        <ele>65.2</ele>
        <time>2018-07-22T08:23:41Z</time>
      </trkpt>
      <trkpt lat="63.852539880078" lon="20.331557076104">
        <ele>65.4</ele>
        <time>2018-07-22T08:23:47Z</time>
      </trkpt>
      <trkpt lat="63.852634176453" lon="20.331849436776">
        <ele>65.2</ele>
        <time>2018-07-22T08:23:53Z</time>
      </trkpt>
      <trkpt lat="63.852698465626" lon="20.332152358642">
        <ele>65.2</ele>
        <time>2018-07-22T08:23:59Z</time>
      </trkpt>
      <trkpt lat="63.852763090075" lon="20.332428123152">
        <ele>65.6</ele>
        <time>2018-07-22T08:24:05Z</time>
      </trkpt>
      <trkpt lat="63.852820086995" lon="20.332706988965">
        <ele>66</ele>
        <time>2018-07-22T08:24:11Z</time>
      </trkpt>
      <trkpt lat="63.852888734756" lon="20.333023321871">
        <ele>66</ele>
        <time>2018-07-22T08:24:17Z</time>
      </trkpt>
      <trkpt lat="63.852946318409" lon="20.333313167973">
        <ele>66.2</ele>
        <time>2018-07-22T08:24:23Z</time>
      </trkpt>
      <trkpt lat="63.852955706137" lon="20.333359687518">
        <ele>66.4</ele>
        <time>2018-07-22T08:24:24Z</time>
      </trkpt>
      <trkpt lat="63.853021923147" lon="20.333664118126">
        <ele>66.8</ele>
        <time>2018-07-22T08:24:30Z</time>
      </trkpt>
      <trkpt lat="63.853079842076" lon="20.333984055249">
        <ele>66.8</ele>
        <time>2018-07-22T08:24:36Z</time>
      </trkpt>
      <trkpt lat="63.853113956409" lon="20.334291084246">
        <ele>67</ele>
        <time>2018-07-22T08:24:42Z</time>
      </trkpt>
      <trkpt lat="63.85314991476" lon="20.33461429031">
        <ele>67.4</ele>
        <time>2018-07-22T08:24:48Z</time>
      </trkpt>
      <trkpt lat="63.853151255864" lon="20.334661145131">
        <ele>67.4</ele>
        <time>2018-07-22T08:24:49Z</time>
      </trkpt>
      <trkpt lat="63.853155027719" lon="20.334948811939">
        <ele>67.6</ele>
        <time>2018-07-22T08:24:55Z</time>
      </trkpt>
      <trkpt lat="63.853153183701" lon="20.335289368536">
        <ele>68.2</ele>
        <time>2018-07-22T08:25:01Z</time>
      </trkpt>
      <trkpt lat="63.853162990524" lon="20.335625482726">
        <ele>67.8</ele>
        <time>2018-07-22T08:25:07Z</time>
      </trkpt>
      <trkpt lat="63.853186878939" lon="20.335959920536">
        <ele>67.4</ele>
        <time>2018-07-22T08:25:13Z</time>
      </trkpt>
      <trkpt lat="63.853186543663" lon="20.336286311722">
        <ele>67</ele>
        <time>2018-07-22T08:25:19Z</time>
      </trkpt>
      <trkpt lat="63.853178077944" lon="20.336489740435">
        <ele>66.6</ele>
        <time>2018-07-22T08:25:23Z</time>
      </trkpt>
      <trkpt lat="63.853172964985" lon="20.33655050921">
        <ele>66.4</ele>
        <time>2018-07-22T08:25:24Z</time>
      </trkpt>
      <trkpt lat="63.853143879792" lon="20.336911182367">
        <ele>65.8</ele>
        <time>2018-07-22T08:25:30Z</time>
      </trkpt>
      <trkpt lat="63.853129211467" lon="20.337027606958">
        <ele>65.2</ele>
        <time>2018-07-22T08:25:32Z</time>
      </trkpt>
      <trkpt lat="63.85311890173" lon="20.337358272913">
        <ele>64.2</ele>
        <time>2018-07-22T08:25:38Z</time>
      </trkpt>
      <trkpt lat="63.853114124047" lon="20.337413174358">
        <ele>64.2</ele>
        <time>2018-07-22T08:25:39Z</time>
      </trkpt>
      <trkpt lat="63.85309459422" lon="20.337699751519">
        <ele>63.2</ele>
        <time>2018-07-22T08:25:44Z</time>
      </trkpt>
      <trkpt lat="63.853054025824" lon="20.338095544837">
        <ele>63.6</ele>
        <time>2018-07-22T08:25:50Z</time>
      </trkpt>
      <trkpt lat="63.853030305047" lon="20.338536097501">
        <ele>63.6</ele>
        <time>2018-07-22T08:25:56Z</time>
      </trkpt>
      <trkpt lat="63.852998370008" lon="20.339126686175">
        <ele>63.4</ele>
        <time>2018-07-22T08:26:04Z</time>
      </trkpt>
      <trkpt lat="63.852984958968" lon="20.339508397901">
        <ele>63.6</ele>
        <time>2018-07-22T08:26:10Z</time>
      </trkpt>
      <trkpt lat="63.852962830752" lon="20.339865718298">
        <ele>63.2</ele>
        <time>2018-07-22T08:26:16Z</time>
      </trkpt>
      <trkpt lat="63.852956376689" lon="20.340049701003">
        <ele>63.2</ele>
        <time>2018-07-22T08:26:19Z</time>
      </trkpt>
      <trkpt lat="63.852952688653" lon="20.340367123556">
        <ele>63</ele>
        <time>2018-07-22T08:26:25Z</time>
      </trkpt>
      <trkpt lat="63.852940618717" lon="20.340713715121">
        <ele>63.2</ele>
        <time>2018-07-22T08:26:31Z</time>
      </trkpt>
      <trkpt lat="63.852940618717" lon="20.34104907494">
        <ele>62.4</ele>
        <time>2018-07-22T08:26:37Z</time>
      </trkpt>
      <trkpt lat="63.852955538499" lon="20.341273206946">
        <ele>62</ele>
        <time>2018-07-22T08:26:41Z</time>
      </trkpt>
      <trkpt lat="63.853016223455" lon="20.341677968897">
        <ele>61.8</ele>
        <time>2018-07-22T08:26:47Z</time>
      </trkpt>
      <trkpt lat="63.853095851505" lon="20.342063536297">
        <ele>62.4</ele>
        <time>2018-07-22T08:26:53Z</time>
      </trkpt>
      <trkpt lat="63.853156871737" lon="20.342412558613">
        <ele>61.8</ele>
        <time>2018-07-22T08:26:59Z</time>
      </trkpt>
      <trkpt lat="63.853221580005" lon="20.342705003104">
        <ele>61.2</ele>
        <time>2018-07-22T08:27:04Z</time>
      </trkpt>
      <trkpt lat="63.853292658517" lon="20.343047152262">
        <ele>61.2</ele>
        <time>2018-07-22T08:27:10Z</time>
      </trkpt>
      <trkpt lat="63.853388044539" lon="20.343241360885">
        <ele>61.2</ele>
        <time>2018-07-22T08:27:16Z</time>
      </trkpt>
      <trkpt lat="63.853483933475" lon="20.343329706111">
        <ele>60.8</ele>
        <time>2018-07-22T08:27:21Z</time>
      </trkpt>
      <trkpt lat="63.853601531532" lon="20.343389133782">
        <ele>60.4</ele>
        <time>2018-07-22T08:27:27Z</time>
      </trkpt>
      <trkpt lat="63.853713765173" lon="20.34346557671">
        <ele>60.6</ele>
        <time>2018-07-22T08:27:33Z</time>
      </trkpt>
      <trkpt lat="63.853838739302" lon="20.343521064888">
        <ele>60.4</ele>
        <time>2018-07-22T08:27:39Z</time>
      </trkpt>
      <trkpt lat="63.853949464201" lon="20.343590215563">
        <ele>59.8</ele>
        <time>2018-07-22T08:27:45Z</time>
      </trkpt>
      <trkpt lat="63.853981566878" lon="20.343607147001">
        <ele>59.8</ele>
        <time>2018-07-22T08:27:47Z</time>
      </trkpt>
      <trkpt lat="63.85408701118" lon="20.343658276591">
        <ele>59.4</ele>
        <time>2018-07-22T08:27:53Z</time>
      </trkpt>
      <trkpt lat="63.854201675572" lon="20.343723823049">
        <ele>59.6</ele>
        <time>2018-07-22T08:27:59Z</time>
      </trkpt>
      <trkpt lat="63.854379288033" lon="20.34372206285">
        <ele>59.4</ele>
        <time>2018-07-22T08:28:05Z</time>
      </trkpt>
      <trkpt lat="63.854547680404" lon="20.343694318761">
        <ele>58.6</ele>
        <time>2018-07-22T08:28:10Z</time>
      </trkpt>
      <trkpt lat="63.854714564033" lon="20.343709909095">
        <ele>58.6</ele>
        <time>2018-07-22T08:28:16Z</time>
      </trkpt>
      <trkpt lat="63.854900809851" lon="20.343711920751">
        <ele>58.6</ele>
        <time>2018-07-22T08:28:21Z</time>
      </trkpt>
      <trkpt lat="63.855086468936" lon="20.343693480571">
        <ele>57.8</ele>
        <time>2018-07-22T08:28:26Z</time>
      </trkpt>
      <trkpt lat="63.855239773887" lon="20.343761541599">
        <ele>58</ele>
        <time>2018-07-22T08:28:32Z</time>
      </trkpt>
      <trkpt lat="63.855381847092" lon="20.34384192402">
        <ele>58</ele>
        <time>2018-07-22T08:28:38Z</time>
      </trkpt>
      <trkpt lat="63.855462900065" lon="20.343901016415">
        <ele>57.6</ele>
        <time>2018-07-22T08:28:42Z</time>
      </trkpt>
      <trkpt lat="63.855626682391" lon="20.343907721935">
        <ele>57.4</ele>
        <time>2018-07-22T08:28:48Z</time>
      </trkpt>
      <trkpt lat="63.855791722002" lon="20.34391400836">
        <ele>57.4</ele>
        <time>2018-07-22T08:28:54Z</time>
      </trkpt>
      <trkpt lat="63.855943182935" lon="20.343961617552">
        <ele>57.2</ele>
        <time>2018-07-22T08:29:00Z</time>
      </trkpt>
      <trkpt lat="63.856109815107" lon="20.344005790165">
        <ele>57.2</ele>
        <time>2018-07-22T08:29:06Z</time>
      </trkpt>
      <trkpt lat="63.856274351804" lon="20.344067732406">
        <ele>57</ele>
        <time>2018-07-22T08:29:12Z</time>
      </trkpt>
      <trkpt lat="63.856449449695" lon="20.344097069056">
        <ele>56.8</ele>
        <time>2018-07-22T08:29:18Z</time>
      </trkpt>
      <trkpt lat="63.856567299209" lon="20.344078712695">
        <ele>57</ele>
        <time>2018-07-22T08:29:21Z</time>
      </trkpt>
      <trkpt lat="63.856774667415" lon="20.344102098196">
        <ele>57</ele>
        <time>2018-07-22T08:29:27Z</time>
      </trkpt>
      <trkpt lat="63.856935264619" lon="20.344141241669">
        <ele>56.6</ele>
        <time>2018-07-22T08:29:33Z</time>
      </trkpt>
      <trkpt lat="63.856987902951" lon="20.344166135912">
        <ele>56.6</ele>
        <time>2018-07-22T08:29:35Z</time>
      </trkpt>
      <trkpt lat="63.857129557061" lon="20.344198657684">
        <ele>56.2</ele>
        <time>2018-07-22T08:29:41Z</time>
      </trkpt>
      <trkpt lat="63.857268528963" lon="20.344207710136">
        <ele>56.2</ele>
        <time>2018-07-22T08:29:47Z</time>
      </trkpt>
      <trkpt lat="63.857420576629" lon="20.344236124777">
        <ele>55.8</ele>
        <time>2018-07-22T08:29:53Z</time>
      </trkpt>
      <trkpt lat="63.857626771369" lon="20.344232855836">
        <ele>56</ele>
        <time>2018-07-22T08:29:59Z</time>
      </trkpt>
      <trkpt lat="63.857806144029" lon="20.344287338186">
        <ele>55.6</ele>
        <time>2018-07-22T08:30:03Z</time>
      </trkpt>
      <trkpt lat="63.85792340681" lon="20.344327152211">
        <ele>55.4</ele>
        <time>2018-07-22T08:30:06Z</time>
      </trkpt>
      <trkpt lat="63.858104204393" lon="20.344387669529">
        <ele>55</ele>
        <time>2018-07-22T08:30:12Z</time>
      </trkpt>
      <trkpt lat="63.858258179896" lon="20.34444877358">
        <ele>55</ele>
        <time>2018-07-22T08:30:18Z</time>
      </trkpt>
      <trkpt lat="63.858404695508" lon="20.344490347804">
        <ele>55</ele>
        <time>2018-07-22T08:30:24Z</time>
      </trkpt>
      <trkpt lat="63.858566801454" lon="20.344508704165">
        <ele>54.8</ele>
        <time>2018-07-22T08:30:30Z</time>
      </trkpt>
      <trkpt lat="63.858740222965" lon="20.344501747188">
        <ele>55</ele>
        <time>2018-07-22T08:30:36Z</time>
      </trkpt>
      <trkpt lat="63.858849690579" lon="20.344441313689">
        <ele>54.6</ele>
        <time>2018-07-22T08:30:41Z</time>
      </trkpt>
      <trkpt lat="63.858879865419" lon="20.344334276826">
        <ele>54.4</ele>
        <time>2018-07-22T08:30:44Z</time>
      </trkpt>
      <trkpt lat="63.858893444097" lon="20.344052896443">
        <ele>54.4</ele>
        <time>2018-07-22T08:30:50Z</time>
      </trkpt>
      <trkpt lat="63.858896713038" lon="20.343720302651">
        <ele>54.2</ele>
        <time>2018-07-22T08:30:56Z</time>
      </trkpt>
      <trkpt lat="63.858914315028" lon="20.343398856786">
        <ele>54.8</ele>
        <time>2018-07-22T08:31:02Z</time>
      </trkpt>
      <trkpt lat="63.85891750015" lon="20.343067687917">
        <ele>54.6</ele>
        <time>2018-07-22T08:31:08Z</time>
      </trkpt>
      <trkpt lat="63.858933928674" lon="20.342724952026">
        <ele>54.8</ele>
        <time>2018-07-22T08:31:14Z</time>
      </trkpt>
      <trkpt lat="63.858941640022" lon="20.342405350179">
        <ele>55.2</ele>
        <time>2018-07-22T08:31:20Z</time>
      </trkpt>
      <trkpt lat="63.858940634194" lon="20.342184319476">
        <ele>55</ele>
        <time>2018-07-22T08:31:24Z</time>
      </trkpt>
      <trkpt lat="63.859076420974" lon="20.342100751933">
        <ele>54.8</ele>
        <time>2018-07-22T08:31:30Z</time>
      </trkpt>
      <trkpt lat="63.859397196287" lon="20.342007209929">
        <ele>53.6</ele>
        <time>2018-07-22T08:31:41Z</time>
      </trkpt>
      <trkpt lat="63.859535581456" lon="20.342019279865">
        <ele>53.4</ele>
        <time>2018-07-22T08:31:46Z</time>
      </trkpt>
      <trkpt lat="63.859704141465" lon="20.34206244665">
        <ele>52.8</ele>
        <time>2018-07-22T08:31:52Z</time>
      </trkpt>
      <trkpt lat="63.859870354542" lon="20.342118940656">
        <ele>52.8</ele>
        <time>2018-07-22T08:31:58Z</time>
      </trkpt>
      <trkpt lat="63.860019468543" lon="20.342204268398">
        <ele>52.8</ele>
        <time>2018-07-22T08:32:04Z</time>
      </trkpt>
      <trkpt lat="63.860162631395" lon="20.342343743214">
        <ele>52.6</ele>
        <time>2018-07-22T08:32:10Z</time>
      </trkpt>
      <trkpt lat="63.860320881667" lon="20.342468046791">
        <ele>52.6</ele>
        <time>2018-07-22T08:32:16Z</time>
      </trkpt>
      <trkpt lat="63.86045222604" lon="20.342548010117">
        <ele>52.2</ele>
        <time>2018-07-22T08:32:21Z</time>
      </trkpt>
      <trkpt lat="63.860616930375" lon="20.342611209643">
        <ele>52</ele>
        <time>2018-07-22T08:32:27Z</time>
      </trkpt>
      <trkpt lat="63.860775013009" lon="20.342645743071">
        <ele>51.4</ele>
        <time>2018-07-22T08:32:33Z</time>
      </trkpt>
      <trkpt lat="63.860825974961" lon="20.342663345061">
        <ele>51.2</ele>
        <time>2018-07-22T08:32:35Z</time>
      </trkpt>
      <trkpt lat="63.860990930753" lon="20.342690334779">
        <ele>51.2</ele>
        <time>2018-07-22T08:32:41Z</time>
      </trkpt>
      <trkpt lat="63.861146079722" lon="20.342700728335">
        <ele>50.8</ele>
        <time>2018-07-22T08:32:47Z</time>
      </trkpt>
      <trkpt lat="63.861306257831" lon="20.342755043047">
        <ele>51</ele>
        <time>2018-07-22T08:32:53Z</time>
      </trkpt>
      <trkpt lat="63.861469034329" lon="20.342813213433">
        <ele>50.4</ele>
        <time>2018-07-22T08:32:59Z</time>
      </trkpt>
      <trkpt lat="63.861635917958" lon="20.34286040353">
        <ele>50.4</ele>
        <time>2018-07-22T08:33:05Z</time>
      </trkpt>
      <trkpt lat="63.861794671144" lon="20.342896613338">
        <ele>50.6</ele>
        <time>2018-07-22T08:33:11Z</time>
      </trkpt>
      <trkpt lat="63.861965913361" lon="20.342907425989">
        <ele>50.6</ele>
        <time>2018-07-22T08:33:17Z</time>
      </trkpt>
      <trkpt lat="63.862106896919" lon="20.342940953589">
        <ele>50</ele>
        <time>2018-07-22T08:33:22Z</time>
      </trkpt>
      <trkpt lat="63.862267494123" lon="20.342981186709">
        <ele>49.4</ele>
        <time>2018-07-22T08:33:28Z</time>
      </trkpt>
      <trkpt lat="63.862413255364" lon="20.343016390689">
        <ele>49</ele>
        <time>2018-07-22T08:33:34Z</time>
      </trkpt>
      <trkpt lat="63.862436557046" lon="20.343024353494">
        <ele>49</ele>
        <time>2018-07-22T08:33:35Z</time>
      </trkpt>
      <trkpt lat="63.862578127337" lon="20.343055366524">
        <ele>48.6</ele>
        <time>2018-07-22T08:33:41Z</time>
      </trkpt>
      <trkpt lat="63.862720032904" lon="20.343081937147">
        <ele>48.4</ele>
        <time>2018-07-22T08:33:47Z</time>
      </trkpt>
      <trkpt lat="63.862865794145" lon="20.3430221742">
        <ele>48.2</ele>
        <time>2018-07-22T08:33:53Z</time>
      </trkpt>
      <trkpt lat="63.86299277993" lon="20.342897786804">
        <ele>48.2</ele>
        <time>2018-07-22T08:33:59Z</time>
      </trkpt>
      <trkpt lat="63.863095122929" lon="20.342808854845">
        <ele>48</ele>
        <time>2018-07-22T08:34:04Z</time>
      </trkpt>
      <trkpt lat="63.863207775665" lon="20.342603246838">
        <ele>47.6</ele>
        <time>2018-07-22T08:34:10Z</time>
      </trkpt>
      <trkpt lat="63.863178439015" lon="20.342348185621">
        <ele>47.6</ele>
        <time>2018-07-22T08:34:16Z</time>
      </trkpt>
      <trkpt lat="63.863153544772" lon="20.342075606233">
        <ele>47.8</ele>
        <time>2018-07-22T08:34:22Z</time>
      </trkpt>
      <trkpt lat="63.8631545506" lon="20.341789615805">
        <ele>48.4</ele>
        <time>2018-07-22T08:34:28Z</time>
      </trkpt>
      <trkpt lat="63.863163854509" lon="20.341583337246">
        <ele>48.6</ele>
        <time>2018-07-22T08:34:32Z</time>
      </trkpt>
      <trkpt lat="63.863198807032" lon="20.34129801737">
        <ele>48.8</ele>
        <time>2018-07-22T08:34:38Z</time>
      </trkpt>
      <trkpt lat="63.863216660479" lon="20.341268345444">
        <ele>49</ele>
        <time>2018-07-22T08:34:39Z</time>
      </trkpt>
      <trkpt lat="63.863314225795" lon="20.341025940896">
        <ele>49.6</ele>
        <time>2018-07-22T08:34:45Z</time>
      </trkpt>
      <trkpt lat="63.863405672324" lon="20.340777920475">
        <ele>49.6</ele>
        <time>2018-07-22T08:34:51Z</time>
      </trkpt>
      <trkpt lat="63.863448336195" lon="20.340483715785">
        <ele>49.8</ele>
        <time>2018-07-22T08:34:57Z</time>
      </trkpt>
      <trkpt lat="63.863462669244" lon="20.340372571791">
        <ele>50.2</ele>
        <time>2018-07-22T08:34:59Z</time>
      </trkpt>
      <trkpt lat="63.863495107197" lon="20.340118181126">
        <ele>51.2</ele>
        <time>2018-07-22T08:35:03Z</time>
      </trkpt>
      <trkpt lat="63.863512206273" lon="20.339782234574">
        <ele>51.4</ele>
        <time>2018-07-22T08:35:09Z</time>
      </trkpt>
      <trkpt lat="63.863529137711" lon="20.339454502284">
        <ele>52</ele>
        <time>2018-07-22T08:35:15Z</time>
      </trkpt>
      <trkpt lat="63.863574902885" lon="20.339124255424">
        <ele>52</ele>
        <time>2018-07-22T08:35:21Z</time>
      </trkpt>
      <trkpt lat="63.863610023046" lon="20.338795349668">
        <ele>52</ele>
        <time>2018-07-22T08:35:27Z</time>
      </trkpt>
      <trkpt lat="63.863620248964" lon="20.33842134929">
        <ele>52</ele>
        <time>2018-07-22T08:35:33Z</time>
      </trkpt>
      <trkpt lat="63.863643885922" lon="20.338062268694">
        <ele>52.2</ele>
        <time>2018-07-22T08:35:38Z</time>
      </trkpt>
      <trkpt lat="63.86370691781" lon="20.337701930813">
        <ele>53</ele>
        <time>2018-07-22T08:35:44Z</time>
      </trkpt>
      <trkpt lat="63.863727788741" lon="20.337313932662">
        <ele>52.8</ele>
        <time>2018-07-22T08:35:50Z</time>
      </trkpt>
      <trkpt lat="63.863748659672" lon="20.336998354127">
        <ele>52.8</ele>
        <time>2018-07-22T08:35:56Z</time>
      </trkpt>
      <trkpt lat="63.863776990494" lon="20.336696018994">
        <ele>52.6</ele>
        <time>2018-07-22T08:36:02Z</time>
      </trkpt>
      <trkpt lat="63.863786210584" lon="20.336368454342">
        <ele>52.4</ele>
        <time>2018-07-22T08:36:08Z</time>
      </trkpt>
      <trkpt lat="63.863742624704" lon="20.335992861403">
        <ele>52.4</ele>
        <time>2018-07-22T08:36:14Z</time>
      </trkpt>
      <trkpt lat="63.863673138753" lon="20.335585249606">
        <ele>52.6</ele>
        <time>2018-07-22T08:36:20Z</time>
      </trkpt>
      <trkpt lat="63.863632654176" lon="20.335233209806">
        <ele>52.6</ele>
        <time>2018-07-22T08:36:26Z</time>
      </trkpt>
      <trkpt lat="63.863608262847" lon="20.334863148921">
        <ele>52.8</ele>
        <time>2018-07-22T08:36:32Z</time>
      </trkpt>
      <trkpt lat="63.86358789483" lon="20.334482778299">
        <ele>53.2</ele>
        <time>2018-07-22T08:36:38Z</time>
      </trkpt>
      <trkpt lat="63.86357029284" lon="20.334253198058">
        <ele>53.2</ele>
        <time>2018-07-22T08:36:42Z</time>
      </trkpt>
      <trkpt lat="63.863594432712" lon="20.334214641318">
        <ele>53.6</ele>
        <time>2018-07-22T08:36:43Z</time>
      </trkpt>
      <trkpt lat="63.863752766803" lon="20.334096791804">
        <ele>53.6</ele>
        <time>2018-07-22T08:36:49Z</time>
      </trkpt>
      <trkpt lat="63.86386114477" lon="20.333928147976">
        <ele>52.8</ele>
        <time>2018-07-22T08:36:55Z</time>
      </trkpt>
      <trkpt lat="63.863861731503" lon="20.33387416854">
        <ele>52.8</ele>
        <time>2018-07-22T08:36:56Z</time>
      </trkpt>
      <trkpt lat="63.863848488101" lon="20.333576275814">
        <ele>52.8</ele>
        <time>2018-07-22T08:37:02Z</time>
      </trkpt>
      <trkpt lat="63.863739523401" lon="20.333226918222">
        <ele>52.6</ele>
        <time>2018-07-22T08:37:08Z</time>
      </trkpt>
      <trkpt lat="63.863618824041" lon="20.333107392328">
        <ele>52.2</ele>
        <time>2018-07-22T08:37:14Z</time>
      </trkpt>
      <trkpt lat="63.863246919138" lon="20.332957943051">
        <ele>52</ele>
        <time>2018-07-22T08:37:26Z</time>
      </trkpt>
      <trkpt lat="63.86310258282" lon="20.332884685245">
        <ele>51.8</ele>
        <time>2018-07-22T08:37:32Z</time>
      </trkpt>
      <trkpt lat="63.862955564294" lon="20.332830035257">
        <ele>51.8</ele>
        <time>2018-07-22T08:37:38Z</time>
      </trkpt>
      <trkpt lat="63.862801504972" lon="20.332772451604">
        <ele>52.2</ele>
        <time>2018-07-22T08:37:44Z</time>
      </trkpt>
      <trkpt lat="63.862649876401" lon="20.332714784132">
        <ele>52</ele>
        <time>2018-07-22T08:37:50Z</time>
      </trkpt>
      <trkpt lat="63.862494308337" lon="20.332739091642">
        <ele>52.6</ele>
        <time>2018-07-22T08:37:56Z</time>
      </trkpt>
      <trkpt lat="63.86235743191" lon="20.332796507657">
        <ele>52.8</ele>
        <time>2018-07-22T08:38:02Z</time>
      </trkpt>
      <trkpt lat="63.862220723121" lon="20.332753173234">
        <ele>53.2</ele>
        <time>2018-07-22T08:38:08Z</time>
      </trkpt>
      <trkpt lat="63.862077895545" lon="20.332673629003">
        <ele>53.6</ele>
        <time>2018-07-22T08:38:13Z</time>
      </trkpt>
      <trkpt lat="63.861906401871" lon="20.332614620427">
        <ele>53.4</ele>
        <time>2018-07-22T08:38:19Z</time>
      </trkpt>
      <trkpt lat="63.861742284269" lon="20.332566340683">
        <ele>53.2</ele>
        <time>2018-07-22T08:38:25Z</time>
      </trkpt>
      <trkpt lat="63.861590320422" lon="20.332479001285">
        <ele>53.4</ele>
        <time>2018-07-22T08:38:31Z</time>
      </trkpt>
      <trkpt lat="63.861426119001" lon="20.332378083209">
        <ele>53.8</ele>
        <time>2018-07-22T08:38:37Z</time>
      </trkpt>
      <trkpt lat="63.86125772663" lon="20.332313291122">
        <ele>54</ele>
        <time>2018-07-22T08:38:43Z</time>
      </trkpt>
      <trkpt lat="63.861106098059" lon="20.332263837912">
        <ele>53.8</ele>
        <time>2018-07-22T08:38:49Z</time>
      </trkpt>
      <trkpt lat="63.860956648782" lon="20.332230980864">
        <ele>53.6</ele>
        <time>2018-07-22T08:38:55Z</time>
      </trkpt>
      <trkpt lat="63.860795381026" lon="20.332195944522">
        <ele>54</ele>
        <time>2018-07-22T08:39:01Z</time>
      </trkpt>
      <trkpt lat="63.86062489318" lon="20.33217515741">
        <ele>54.4</ele>
        <time>2018-07-22T08:39:07Z</time>
      </trkpt>
      <trkpt lat="63.860491285694" lon="20.332057894629">
        <ele>54</ele>
        <time>2018-07-22T08:39:13Z</time>
      </trkpt>
      <trkpt lat="63.860348374299" lon="20.332006513582">
        <ele>54.4</ele>
        <time>2018-07-22T08:39:19Z</time>
      </trkpt>
      <trkpt lat="63.860323396237" lon="20.331991258524">
        <ele>54.6</ele>
        <time>2018-07-22T08:39:20Z</time>
      </trkpt>
      <trkpt lat="63.86016053592" lon="20.331917246347">
        <ele>54.2</ele>
        <time>2018-07-22T08:39:26Z</time>
      </trkpt>
      <trkpt lat="63.859994741938" lon="20.331853963002">
        <ele>54.2</ele>
        <time>2018-07-22T08:39:32Z</time>
      </trkpt>
      <trkpt lat="63.859825679015" lon="20.331819848669">
        <ele>54.4</ele>
        <time>2018-07-22T08:39:38Z</time>
      </trkpt>
      <trkpt lat="63.859675643005" lon="20.331803252507">
        <ele>54.4</ele>
        <time>2018-07-22T08:39:44Z</time>
      </trkpt>
      <trkpt lat="63.859529462669" lon="20.331795038245">
        <ele>55</ele>
        <time>2018-07-22T08:39:50Z</time>
      </trkpt>
      <trkpt lat="63.859364087782" lon="20.331791769304">
        <ele>54.6</ele>
        <time>2018-07-22T08:39:56Z</time>
      </trkpt>
      <trkpt lat="63.859203742035" lon="20.331772155658">
        <ele>54.6</ele>
        <time>2018-07-22T08:40:02Z</time>
      </trkpt>
      <trkpt lat="63.859185804769" lon="20.331700238956">
        <ele>54.6</ele>
        <time>2018-07-22T08:40:04Z</time>
      </trkpt>
      <trkpt lat="63.859253279064" lon="20.331329172243">
        <ele>54.4</ele>
        <time>2018-07-22T08:40:10Z</time>
      </trkpt>
      <trkpt lat="63.859322848834" lon="20.331032117707">
        <ele>53.8</ele>
        <time>2018-07-22T08:40:16Z</time>
      </trkpt>
      <trkpt lat="63.859329721992" lon="20.330875208539">
        <ele>53.4</ele>
        <time>2018-07-22T08:40:19Z</time>
      </trkpt>
      <trkpt lat="63.859309353975" lon="20.330575220338">
        <ele>52.8</ele>
        <time>2018-07-22T08:40:25Z</time>
      </trkpt>
      <trkpt lat="63.859264762267" lon="20.330276740879">
        <ele>52.4</ele>
        <time>2018-07-22T08:40:31Z</time>
      </trkpt>
      <trkpt lat="63.859237269635" lon="20.329977507049">
        <ele>52.2</ele>
        <time>2018-07-22T08:40:37Z</time>
      </trkpt>
      <trkpt lat="63.85919075009" lon="20.32968908587">
        <ele>52.4</ele>
        <time>2018-07-22T08:40:43Z</time>
      </trkpt>
      <trkpt lat="63.859120677406" lon="20.329403095442">
        <ele>52.2</ele>
        <time>2018-07-22T08:40:49Z</time>
      </trkpt>
      <trkpt lat="63.859056304414" lon="20.328989616315">
        <ele>52.4</ele>
        <time>2018-07-22T08:40:55Z</time>
      </trkpt>
      <trkpt lat="63.858968545921" lon="20.328582842708">
        <ele>53</ele>
        <time>2018-07-22T08:41:01Z</time>
      </trkpt>
      <trkpt lat="63.858922948385" lon="20.328217810963">
        <ele>52.8</ele>
        <time>2018-07-22T08:41:07Z</time>
      </trkpt>
      <trkpt lat="63.858920266177" lon="20.327885887723">
        <ele>53.6</ele>
        <time>2018-07-22T08:41:13Z</time>
      </trkpt>
      <trkpt lat="63.858926971697" lon="20.327597885639">
        <ele>54.2</ele>
        <time>2018-07-22T08:41:19Z</time>
      </trkpt>
      <trkpt lat="63.85893677852" lon="20.3273228755">
        <ele>54.8</ele>
        <time>2018-07-22T08:41:24Z</time>
      </trkpt>
      <trkpt lat="63.858912806286" lon="20.326941750507">
        <ele>55.4</ele>
        <time>2018-07-22T08:41:30Z</time>
      </trkpt>
      <trkpt lat="63.858833932607" lon="20.326704626556">
        <ele>54.6</ele>
        <time>2018-07-22T08:41:36Z</time>
      </trkpt>
      <trkpt lat="63.858775929859" lon="20.326553584718">
        <ele>54.4</ele>
        <time>2018-07-22T08:41:40Z</time>
      </trkpt>
      <trkpt lat="63.858831837132" lon="20.326226355342">
        <ele>54</ele>
        <time>2018-07-22T08:41:46Z</time>
      </trkpt>
      <trkpt lat="63.85892588205" lon="20.325913626653">
        <ele>54</ele>
        <time>2018-07-22T08:41:52Z</time>
      </trkpt>
      <trkpt lat="63.858970054663" lon="20.325544823053">
        <ele>54.2</ele>
        <time>2018-07-22T08:41:58Z</time>
      </trkpt>
      <trkpt lat="63.858976005812" lon="20.325133858496">
        <ele>53.8</ele>
        <time>2018-07-22T08:42:04Z</time>
      </trkpt>
      <trkpt lat="63.858986902282" lon="20.325019613199">
        <ele>53.8</ele>
        <time>2018-07-22T08:42:06Z</time>
      </trkpt>
      <trkpt lat="63.859028057411" lon="20.324673859824">
        <ele>54</ele>
        <time>2018-07-22T08:42:12Z</time>
      </trkpt>
      <trkpt lat="63.859071475653" lon="20.324354677072">
        <ele>54</ele>
        <time>2018-07-22T08:42:18Z</time>
      </trkpt>
      <trkpt lat="63.859110870583" lon="20.324045720238">
        <ele>54.6</ele>
        <time>2018-07-22T08:42:24Z</time>
      </trkpt>
      <trkpt lat="63.859194019031" lon="20.323809769753">
        <ele>54.4</ele>
        <time>2018-07-22T08:42:30Z</time>
      </trkpt>
      <trkpt lat="63.859273647081" lon="20.323498885082">
        <ele>54.6</ele>
        <time>2018-07-22T08:42:36Z</time>
      </trkpt>
      <trkpt lat="63.859258224385" lon="20.323085657412">
        <ele>54.8</ele>
        <time>2018-07-22T08:42:41Z</time>
      </trkpt>
      <trkpt lat="63.859251686503" lon="20.322689528818">
        <ele>54.8</ele>
        <time>2018-07-22T08:42:47Z</time>
      </trkpt>
      <trkpt lat="63.859265432819" lon="20.322436982171">
        <ele>55.2</ele>
        <time>2018-07-22T08:42:53Z</time>
      </trkpt>
      <trkpt lat="63.859274317633" lon="20.322177059452">
        <ele>55.2</ele>
        <time>2018-07-22T08:42:59Z</time>
      </trkpt>
      <trkpt lat="63.859305079206" lon="20.321366362084">
        <ele>55.2</ele>
        <time>2018-07-22T08:43:11Z</time>
      </trkpt>
      <trkpt lat="63.859328883802" lon="20.320982051969">
        <ele>55</ele>
        <time>2018-07-22T08:43:17Z</time>
      </trkpt>
      <trkpt lat="63.859358220452" lon="20.320638980802">
        <ele>55.4</ele>
        <time>2018-07-22T08:43:23Z</time>
      </trkpt>
      <trkpt lat="63.859380097211" lon="20.320260873293">
        <ele>55.2</ele>
        <time>2018-07-22T08:43:29Z</time>
      </trkpt>
      <trkpt lat="63.859388395292" lon="20.319867594545">
        <ele>54.8</ele>
        <time>2018-07-22T08:43:35Z</time>
      </trkpt>
      <trkpt lat="63.859389484939" lon="20.319555536408">
        <ele>54.4</ele>
        <time>2018-07-22T08:43:41Z</time>
      </trkpt>
      <trkpt lat="63.859371882949" lon="20.319275329491">
        <ele>54.4</ele>
        <time>2018-07-22T08:43:47Z</time>
      </trkpt>
      <trkpt lat="63.859329554354" lon="20.318969641598">
        <ele>54.8</ele>
        <time>2018-07-22T08:43:53Z</time>
      </trkpt>
      <trkpt lat="63.859279011497" lon="20.318631934847">
        <ele>54.2</ele>
        <time>2018-07-22T08:43:59Z</time>
      </trkpt>
      <trkpt lat="63.859249591028" lon="20.318453651834">
        <ele>53.8</ele>
        <time>2018-07-22T08:44:02Z</time>
      </trkpt>
      <trkpt lat="63.859179350706" lon="20.318076717791">
        <ele>53.6</ele>
        <time>2018-07-22T08:44:08Z</time>
      </trkpt>
      <trkpt lat="63.859103159235" lon="20.317673129306">
        <ele>52.6</ele>
        <time>2018-07-22T08:44:14Z</time>
      </trkpt>
      <trkpt lat="63.859039289157" lon="20.317311953235">
        <ele>52.6</ele>
        <time>2018-07-22T08:44:20Z</time>
      </trkpt>
      <trkpt lat="63.858973910337" lon="20.316959075245">
        <ele>52.2</ele>
        <time>2018-07-22T08:44:26Z</time>
      </trkpt>
      <trkpt lat="63.858919008892" lon="20.316576525329">
        <ele>52.2</ele>
        <time>2018-07-22T08:44:32Z</time>
      </trkpt>
      <trkpt lat="63.858917164874" lon="20.316192299033">
        <ele>53</ele>
        <time>2018-07-22T08:44:38Z</time>
      </trkpt>
      <trkpt lat="63.858954967243" lon="20.315811593135">
        <ele>53.4</ele>
        <time>2018-07-22T08:44:44Z</time>
      </trkpt>
      <trkpt lat="63.858989416852" lon="20.315649571008">
        <ele>53.8</ele>
        <time>2018-07-22T08:44:47Z</time>
      </trkpt>
      <trkpt lat="63.85909016729" lon="20.315407250279">
        <ele>54.8</ele>
        <time>2018-07-22T08:44:53Z</time>
      </trkpt>
      <trkpt lat="63.859125203632" lon="20.315331226446">
        <ele>55.2</ele>
        <time>2018-07-22T08:44:55Z</time>
      </trkpt>
      <trkpt lat="63.859175830308" lon="20.315234247863">
        <ele>55.8</ele>
        <time>2018-07-22T08:44:58Z</time>
      </trkpt>
      <trkpt lat="63.859274317633" lon="20.3150601558">
        <ele>56.2</ele>
        <time>2018-07-22T08:45:04Z</time>
      </trkpt>
      <trkpt lat="63.859372050587" lon="20.314852536137">
        <ele>57.2</ele>
        <time>2018-07-22T08:45:10Z</time>
      </trkpt>
      <trkpt lat="63.859427538765" lon="20.314701326661">
        <ele>57.4</ele>
        <time>2018-07-22T08:45:14Z</time>
      </trkpt>
      <trkpt lat="63.859522086597" lon="20.314497311215">
        <ele>58.2</ele>
        <time>2018-07-22T08:45:20Z</time>
      </trkpt>
      <trkpt lat="63.859543544261" lon="20.314479541587">
        <ele>58.4</ele>
        <time>2018-07-22T08:45:21Z</time>
      </trkpt>
      <trkpt lat="63.859629542555" lon="20.314386083402">
        <ele>58.6</ele>
        <time>2018-07-22T08:45:26Z</time>
      </trkpt>
      <trkpt lat="63.859606324692" lon="20.314358004037">
        <ele>58.8</ele>
        <time>2018-07-22T08:45:28Z</time>
      </trkpt>
      <trkpt lat="63.859566175391" lon="20.314331601052">
        <ele>59</ele>
        <time>2018-07-22T08:45:30Z</time>
      </trkpt>
      <trkpt lat="63.859511944498" lon="20.314079808776">
        <ele>58.6</ele>
        <time>2018-07-22T08:45:36Z</time>
      </trkpt>
      <trkpt lat="63.859518314742" lon="20.313734474496">
        <ele>58.8</ele>
        <time>2018-07-22T08:45:42Z</time>
      </trkpt>
      <trkpt lat="63.859516973638" lon="20.313351421666">
        <ele>58.8</ele>
        <time>2018-07-22T08:45:48Z</time>
      </trkpt>
      <trkpt lat="63.85954027532" lon="20.312997034934">
        <ele>58.4</ele>
        <time>2018-07-22T08:45:54Z</time>
      </trkpt>
      <trkpt lat="63.859562403536" lon="20.312660669287">
        <ele>57.8</ele>
        <time>2018-07-22T08:46:00Z</time>
      </trkpt>
      <trkpt lat="63.859572629454" lon="20.312550195845">
        <ele>57.4</ele>
        <time>2018-07-22T08:46:02Z</time>
      </trkpt>
      <trkpt lat="63.85958553758" lon="20.312187427213">
        <ele>56.8</ele>
        <time>2018-07-22T08:46:08Z</time>
      </trkpt>
      <trkpt lat="63.859568270866" lon="20.311799093786">
        <ele>57.2</ele>
        <time>2018-07-22T08:46:14Z</time>
      </trkpt>
      <trkpt lat="63.859585705218" lon="20.311470020392">
        <ele>57.2</ele>
        <time>2018-07-22T08:46:20Z</time>
      </trkpt>
      <trkpt lat="63.859623759044" lon="20.311138432428">
        <ele>57.2</ele>
        <time>2018-07-22T08:46:26Z</time>
      </trkpt>
      <trkpt lat="63.859668686028" lon="20.310844479195">
        <ele>57.6</ele>
        <time>2018-07-22T08:46:32Z</time>
      </trkpt>
      <trkpt lat="63.859687210027" lon="20.310539629492">
        <ele>58</ele>
        <time>2018-07-22T08:46:38Z</time>
      </trkpt>
      <trkpt lat="63.859733645753" lon="20.310288004854">
        <ele>58.4</ele>
        <time>2018-07-22T08:46:44Z</time>
      </trkpt>
      <trkpt lat="63.859784440067" lon="20.309998829304">
        <ele>58</ele>
        <time>2018-07-22T08:46:50Z</time>
      </trkpt>
      <trkpt lat="63.859842107539" lon="20.309678389267">
        <ele>57.4</ele>
        <time>2018-07-22T08:46:56Z</time>
      </trkpt>
      <trkpt lat="63.859904552694" lon="20.309374210116">
        <ele>56.6</ele>
        <time>2018-07-22T08:47:02Z</time>
      </trkpt>
      <trkpt lat="63.859923747245" lon="20.309281254845">
        <ele>56.4</ele>
        <time>2018-07-22T08:47:04Z</time>
      </trkpt>
      <trkpt lat="63.859995915404" lon="20.309021499764">
        <ele>56.2</ele>
        <time>2018-07-22T08:47:10Z</time>
      </trkpt>
      <trkpt lat="63.860071939237" lon="20.308743723598">
        <ele>56.4</ele>
        <time>2018-07-22T08:47:16Z</time>
      </trkpt>
      <trkpt lat="63.860114938384" lon="20.308420349896">
        <ele>56.6</ele>
        <time>2018-07-22T08:47:22Z</time>
      </trkpt>
      <trkpt lat="63.86016891782" lon="20.308070321752">
        <ele>56.8</ele>
        <time>2018-07-22T08:47:28Z</time>
      </trkpt>
      <trkpt lat="63.86023094388" lon="20.307719371599">
        <ele>56.8</ele>
        <time>2018-07-22T08:47:34Z</time>
      </trkpt>
      <trkpt lat="63.860308476455" lon="20.30737982083">
        <ele>56.8</ele>
        <time>2018-07-22T08:47:40Z</time>
      </trkpt>
      <trkpt lat="63.860386260487" lon="20.306971370843">
        <ele>57.2</ele>
        <time>2018-07-22T08:47:46Z</time>
      </trkpt>
      <trkpt lat="63.86042456577" lon="20.306756542746">
        <ele>57.4</ele>
        <time>2018-07-22T08:47:49Z</time>
      </trkpt>
      <trkpt lat="63.860507798037" lon="20.30638572749">
        <ele>57.6</ele>
        <time>2018-07-22T08:47:55Z</time>
      </trkpt>
      <trkpt lat="63.860561023102" lon="20.306053301336">
        <ele>58</ele>
        <time>2018-07-22T08:48:01Z</time>
      </trkpt>
      <trkpt lat="63.860606117724" lon="20.305769238745">
        <ele>58.4</ele>
        <time>2018-07-22T08:48:06Z</time>
      </trkpt>
      <trkpt lat="63.860670574535" lon="20.305459946635">
        <ele>58.8</ele>
        <time>2018-07-22T08:48:12Z</time>
      </trkpt>
      <trkpt lat="63.860728325826" lon="20.305165490488">
        <ele>59.6</ele>
        <time>2018-07-22T08:48:18Z</time>
      </trkpt>
      <trkpt lat="63.860781299434" lon="20.304815210887">
        <ele>60.2</ele>
        <time>2018-07-22T08:48:24Z</time>
      </trkpt>
      <trkpt lat="63.860829243902" lon="20.304625193214">
        <ele>60.6</ele>
        <time>2018-07-22T08:48:28Z</time>
      </trkpt>
      <trkpt lat="63.860893281618" lon="20.304334425103">
        <ele>61.6</ele>
        <time>2018-07-22T08:48:34Z</time>
      </trkpt>
      <trkpt lat="63.860944914122" lon="20.304032509065">
        <ele>62</ele>
        <time>2018-07-22T08:48:40Z</time>
      </trkpt>
      <trkpt lat="63.861000737576" lon="20.303728832828">
        <ele>62.2</ele>
        <time>2018-07-22T08:48:46Z</time>
      </trkpt>
      <trkpt lat="63.861027140561" lon="20.303657586678">
        <ele>62.4</ele>
        <time>2018-07-22T08:48:48Z</time>
      </trkpt>
      <trkpt lat="63.861053878822" lon="20.30361718592">
        <ele>63</ele>
        <time>2018-07-22T08:48:59Z</time>
      </trkpt>
      <trkpt lat="63.861018926299" lon="20.303593381324">
        <ele>62.8</ele>
        <time>2018-07-22T08:49:02Z</time>
      </trkpt>
      <trkpt lat="63.860788759325" lon="20.303342343419">
        <ele>63.2</ele>
        <time>2018-07-22T08:49:13Z</time>
      </trkpt>
      <trkpt lat="63.860639896781" lon="20.303248969053">
        <ele>62.8</ele>
        <time>2018-07-22T08:49:19Z</time>
      </trkpt>
      <trkpt lat="63.860494386997" lon="20.303107901676">
        <ele>63</ele>
        <time>2018-07-22T08:49:25Z</time>
      </trkpt>
      <trkpt lat="63.860350637412" lon="20.302994829845">
        <ele>62.6</ele>
        <time>2018-07-22T08:49:31Z</time>
      </trkpt>
      <trkpt lat="63.860212252243" lon="20.302862144368">
        <ele>62.6</ele>
        <time>2018-07-22T08:49:37Z</time>
      </trkpt>
      <trkpt lat="63.860086607562" lon="20.302784192698">
        <ele>62.4</ele>
        <time>2018-07-22T08:49:43Z</time>
      </trkpt>
      <trkpt lat="63.85992500453" lon="20.30271277891">
        <ele>62.4</ele>
        <time>2018-07-22T08:49:49Z</time>
      </trkpt>
      <trkpt lat="63.859722665464" lon="20.302654859981">
        <ele>62.4</ele>
        <time>2018-07-22T08:49:55Z</time>
      </trkpt>
      <trkpt lat="63.85954362808" lon="20.302617057612">
        <ele>62</ele>
        <time>2018-07-22T08:50:01Z</time>
      </trkpt>
      <trkpt lat="63.859459473804" lon="20.302600545269">
        <ele>62</ele>
        <time>2018-07-22T08:50:04Z</time>
      </trkpt>
      <trkpt lat="63.859298289867" lon="20.302569364601">
        <ele>61.8</ele>
        <time>2018-07-22T08:50:10Z</time>
      </trkpt>
      <trkpt lat="63.859155294653" lon="20.302525611083">
        <ele>62</ele>
        <time>2018-07-22T08:50:16Z</time>
      </trkpt>
      <trkpt lat="63.859005593919" lon="20.302511026577">
        <ele>61.6</ele>
        <time>2018-07-22T08:50:22Z</time>
      </trkpt>
      <trkpt lat="63.858845834905" lon="20.30247473295">
        <ele>61.6</ele>
        <time>2018-07-22T08:50:28Z</time>
      </trkpt>
      <trkpt lat="63.858681046751" lon="20.302406504284">
        <ele>61.6</ele>
        <time>2018-07-22T08:50:34Z</time>
      </trkpt>
      <trkpt lat="63.858525311049" lon="20.302350261735">
        <ele>62</ele>
        <time>2018-07-22T08:50:40Z</time>
      </trkpt>
      <trkpt lat="63.858361528723" lon="20.302319751619">
        <ele>61.6</ele>
        <time>2018-07-22T08:50:46Z</time>
      </trkpt>
      <trkpt lat="63.858208810505" lon="20.302318326696">
        <ele>61.4</ele>
        <time>2018-07-22T08:50:52Z</time>
      </trkpt>
      <trkpt lat="63.858071850259" lon="20.302332073012">
        <ele>61.2</ele>
        <time>2018-07-22T08:50:58Z</time>
      </trkpt>
      <trkpt lat="63.857893818703" lon="20.302360068558">
        <ele>61.2</ele>
        <time>2018-07-22T08:51:04Z</time>
      </trkpt>
      <trkpt lat="63.857724588142" lon="20.302426537025">
        <ele>61.2</ele>
        <time>2018-07-22T08:51:10Z</time>
      </trkpt>
      <trkpt lat="63.85758393986" lon="20.302467524516">
        <ele>60.8</ele>
        <time>2018-07-22T08:51:15Z</time>
      </trkpt>
      <trkpt lat="63.857424264665" lon="20.302543213073">
        <ele>61</ele>
        <time>2018-07-22T08:51:21Z</time>
      </trkpt>
      <trkpt lat="63.85728470603" lon="20.302577243587">
        <ele>60.8</ele>
        <time>2018-07-22T08:51:27Z</time>
      </trkpt>
      <trkpt lat="63.857136681676" lon="20.302632647946">
        <ele>60.6</ele>
        <time>2018-07-22T08:51:33Z</time>
      </trkpt>
      <trkpt lat="63.856975749196" lon="20.302681514423">
        <ele>60.6</ele>
        <time>2018-07-22T08:51:39Z</time>
      </trkpt>
      <trkpt lat="63.856819929675" lon="20.302752006202">
        <ele>60.2</ele>
        <time>2018-07-22T08:51:45Z</time>
      </trkpt>
      <trkpt lat="63.856676683004" lon="20.302854349201">
        <ele>60.2</ele>
        <time>2018-07-22T08:51:51Z</time>
      </trkpt>
      <trkpt lat="63.856545506269" lon="20.302950489594">
        <ele>60.2</ele>
        <time>2018-07-22T08:51:57Z</time>
      </trkpt>
      <trkpt lat="63.85638532816" lon="20.303075128447">
        <ele>60</ele>
        <time>2018-07-22T08:52:03Z</time>
      </trkpt>
      <trkpt lat="63.856188856424" lon="20.303166155881">
        <ele>60</ele>
        <time>2018-07-22T08:52:09Z</time>
      </trkpt>
      <trkpt lat="63.856130099305" lon="20.303189876658">
        <ele>59.8</ele>
        <time>2018-07-22T08:52:11Z</time>
      </trkpt>
      <trkpt lat="63.855961706934" lon="20.303223571896">
        <ele>59.8</ele>
        <time>2018-07-22T08:52:17Z</time>
      </trkpt>
      <trkpt lat="63.855783843016" lon="20.303258105324">
        <ele>59.4</ele>
        <time>2018-07-22T08:52:23Z</time>
      </trkpt>
      <trkpt lat="63.855622239984" lon="20.303257099496">
        <ele>59.2</ele>
        <time>2018-07-22T08:52:29Z</time>
      </trkpt>
      <trkpt lat="63.855458457658" lon="20.303195408712">
        <ele>59</ele>
        <time>2018-07-22T08:52:35Z</time>
      </trkpt>
      <trkpt lat="63.855295932617" lon="20.303134975213">
        <ele>59</ele>
        <time>2018-07-22T08:52:41Z</time>
      </trkpt>
      <trkpt lat="63.855272044202" lon="20.303120223069">
        <ele>58.8</ele>
        <time>2018-07-22T08:52:42Z</time>
      </trkpt>
      <trkpt lat="63.855105160573" lon="20.303089796772">
        <ele>58.8</ele>
        <time>2018-07-22T08:52:48Z</time>
      </trkpt>
      <trkpt lat="63.854953615821" lon="20.303046546168">
        <ele>58.8</ele>
        <time>2018-07-22T08:52:54Z</time>
      </trkpt>
      <trkpt lat="63.854793940626" lon="20.303031039653">
        <ele>58.4</ele>
        <time>2018-07-22T08:53:00Z</time>
      </trkpt>
      <trkpt lat="63.854647425014" lon="20.303019975545">
        <ele>58.6</ele>
        <time>2018-07-22T08:53:06Z</time>
      </trkpt>
      <trkpt lat="63.854513063157" lon="20.302994997483">
        <ele>58.2</ele>
        <time>2018-07-22T08:53:12Z</time>
      </trkpt>
      <trkpt lat="63.854342156216" lon="20.302947723567">
        <ele>58</ele>
        <time>2018-07-22T08:53:18Z</time>
      </trkpt>
      <trkpt lat="63.854189186541" lon="20.30289131338">
        <ele>58</ele>
        <time>2018-07-22T08:53:24Z</time>
      </trkpt>
      <trkpt lat="63.854133698363" lon="20.302871280639">
        <ele>57.8</ele>
        <time>2018-07-22T08:53:26Z</time>
      </trkpt>
      <trkpt lat="63.853978633213" lon="20.302845799663">
        <ele>58</ele>
        <time>2018-07-22T08:53:32Z</time>
      </trkpt>
      <trkpt lat="63.853809235014" lon="20.302831718071">
        <ele>57.6</ele>
        <time>2018-07-22T08:53:38Z</time>
      </trkpt>
      <trkpt lat="63.853643357213" lon="20.302792826055">
        <ele>57.2</ele>
        <time>2018-07-22T08:53:44Z</time>
      </trkpt>
      <trkpt lat="63.853515533238" lon="20.302776229893">
        <ele>57.2</ele>
        <time>2018-07-22T08:53:50Z</time>
      </trkpt>
      <trkpt lat="63.853400952665" lon="20.302767428898">
        <ele>57.4</ele>
        <time>2018-07-22T08:53:56Z</time>
      </trkpt>
      <trkpt lat="63.853243624402" lon="20.302738092248">
        <ele>57.8</ele>
        <time>2018-07-22T08:54:02Z</time>
      </trkpt>
      <trkpt lat="63.853062910638" lon="20.302733230746">
        <ele>57.2</ele>
        <time>2018-07-22T08:54:08Z</time>
      </trkpt>
      <trkpt lat="63.85292360346" lon="20.302826437474">
        <ele>57</ele>
        <time>2018-07-22T08:54:14Z</time>
      </trkpt>
      <trkpt lat="63.852799970435" lon="20.303012599473">
        <ele>57.4</ele>
        <time>2018-07-22T08:54:20Z</time>
      </trkpt>
      <trkpt lat="63.852647168398" lon="20.302966666661">
        <ele>58</ele>
        <time>2018-07-22T08:54:26Z</time>
      </trkpt>
      <trkpt lat="63.852556308602" lon="20.302694422549">
        <ele>57.6</ele>
        <time>2018-07-22T08:54:32Z</time>
      </trkpt>
      <trkpt lat="63.852410128266" lon="20.302502309401">
        <ele>57</ele>
        <time>2018-07-22T08:54:38Z</time>
      </trkpt>
      <trkpt lat="63.852267216871" lon="20.302448329965">
        <ele>57</ele>
        <time>2018-07-22T08:54:44Z</time>
      </trkpt>
      <trkpt lat="63.852078121207" lon="20.302418909496">
        <ele>57.6</ele>
        <time>2018-07-22T08:54:52Z</time>
      </trkpt>
      <trkpt lat="63.85191274632" lon="20.30235235721">
        <ele>57.2</ele>
        <time>2018-07-22T08:54:58Z</time>
      </trkpt>
      <trkpt lat="63.851787604553" lon="20.302320757447">
        <ele>56.8</ele>
        <time>2018-07-22T08:55:02Z</time>
      </trkpt>
      <trkpt lat="63.851602699839" lon="20.302311369719">
        <ele>56.8</ele>
        <time>2018-07-22T08:55:08Z</time>
      </trkpt>
      <trkpt lat="63.85144838906" lon="20.302291420797">
        <ele>56.6</ele>
        <time>2018-07-22T08:55:14Z</time>
      </trkpt>
      <trkpt lat="63.851311261176" lon="20.302390997769">
        <ele>56.8</ele>
        <time>2018-07-22T08:55:20Z</time>
      </trkpt>
      <trkpt lat="63.851260215405" lon="20.302671372324">
        <ele>57</ele>
        <time>2018-07-22T08:55:26Z</time>
      </trkpt>
      <trkpt lat="63.851250157125" lon="20.302846134939">
        <ele>57</ele>
        <time>2018-07-22T08:55:29Z</time>
      </trkpt>
      <trkpt lat="63.851202128838" lon="20.303140842543">
        <ele>56.6</ele>
        <time>2018-07-22T08:55:35Z</time>
      </trkpt>
      <trkpt lat="63.851120572951" lon="20.303393053914">
        <ele>56.8</ele>
        <time>2018-07-22T08:55:41Z</time>
      </trkpt>
      <trkpt lat="63.851095427251" lon="20.303729671018">
        <ele>56.6</ele>
        <time>2018-07-22T08:55:47Z</time>
      </trkpt>
      <trkpt lat="63.851071538836" lon="20.304071568719">
        <ele>56.6</ele>
        <time>2018-07-22T08:55:53Z</time>
      </trkpt>
      <trkpt lat="63.851049829715" lon="20.304422267415">
        <ele>56.2</ele>
        <time>2018-07-22T08:55:59Z</time>
      </trkpt>
      <trkpt lat="63.851028623508" lon="20.304742204538">
        <ele>55.8</ele>
        <time>2018-07-22T08:56:04Z</time>
      </trkpt>
      <trkpt lat="63.851011356794" lon="20.305118887124">
        <ele>55.8</ele>
        <time>2018-07-22T08:56:10Z</time>
      </trkpt>
      <trkpt lat="63.851006914387" lon="20.30548215867">
        <ele>56</ele>
        <time>2018-07-22T08:56:16Z</time>
      </trkpt>
      <trkpt lat="63.850996939926" lon="20.305854650306">
        <ele>55.6</ele>
        <time>2018-07-22T08:56:22Z</time>
      </trkpt>
      <trkpt lat="63.850980427583" lon="20.306178275465">
        <ele>55.2</ele>
        <time>2018-07-22T08:56:28Z</time>
      </trkpt>
      <trkpt lat="63.850950085105" lon="20.306484047177">
        <ele>55.4</ele>
        <time>2018-07-22T08:56:34Z</time>
      </trkpt>
      <trkpt lat="63.850937428436" lon="20.306817646797">
        <ele>55.6</ele>
        <time>2018-07-22T08:56:40Z</time>
      </trkpt>
      <trkpt lat="63.850920832274" lon="20.307170440968">
        <ele>55</ele>
        <time>2018-07-22T08:56:46Z</time>
      </trkpt>
      <trkpt lat="63.85089769823" lon="20.307615603677">
        <ele>55.4</ele>
        <time>2018-07-22T08:56:52Z</time>
      </trkpt>
      <trkpt lat="63.850888813416" lon="20.3080277417">
        <ele>55</ele>
        <time>2018-07-22T08:56:58Z</time>
      </trkpt>
      <trkpt lat="63.850881018249" lon="20.308391851436">
        <ele>55.2</ele>
        <time>2018-07-22T08:57:04Z</time>
      </trkpt>
      <trkpt lat="63.850867942485" lon="20.308630651767">
        <ele>54.6</ele>
        <time>2018-07-22T08:57:08Z</time>
      </trkpt>
      <trkpt lat="63.850851346323" lon="20.309002975765">
        <ele>54.4</ele>
        <time>2018-07-22T08:57:14Z</time>
      </trkpt>
      <trkpt lat="63.850829888659" lon="20.309376640867">
        <ele>54.6</ele>
        <time>2018-07-22T08:57:20Z</time>
      </trkpt>
      <trkpt lat="63.850820920026" lon="20.309727004287">
        <ele>54.6</ele>
        <time>2018-07-22T08:57:26Z</time>
      </trkpt>
      <trkpt lat="63.850819662741" lon="20.310088347996">
        <ele>54.2</ele>
        <time>2018-07-22T08:57:32Z</time>
      </trkpt>
      <trkpt lat="63.850806167882" lon="20.310457989786">
        <ele>54.4</ele>
        <time>2018-07-22T08:57:38Z</time>
      </trkpt>
      <trkpt lat="63.850800049095" lon="20.310818830581">
        <ele>54.8</ele>
        <time>2018-07-22T08:57:44Z</time>
      </trkpt>
      <trkpt lat="63.850778591431" lon="20.311162069386">
        <ele>55</ele>
        <time>2018-07-22T08:57:50Z</time>
      </trkpt>
      <trkpt lat="63.850750931161" lon="20.311517797222">
        <ele>55.2</ele>
        <time>2018-07-22T08:57:56Z</time>
      </trkpt>
      <trkpt lat="63.850742130166" lon="20.311887103736">
        <ele>55.6</ele>
        <time>2018-07-22T08:58:02Z</time>
      </trkpt>
      <trkpt lat="63.850726791289" lon="20.312258254268">
        <ele>55.8</ele>
        <time>2018-07-22T08:58:08Z</time>
      </trkpt>
      <trkpt lat="63.850731485153" lon="20.312598056494">
        <ele>55.6</ele>
        <time>2018-07-22T08:58:14Z</time>
      </trkpt>
      <trkpt lat="63.850760318889" lon="20.312973984709">
        <ele>55.8</ele>
        <time>2018-07-22T08:58:20Z</time>
      </trkpt>
      <trkpt lat="63.850735592284" lon="20.313354355331">
        <ele>55.8</ele>
        <time>2018-07-22T08:58:26Z</time>
      </trkpt>
      <trkpt lat="63.850717655018" lon="20.313680075965">
        <ele>55.8</ele>
        <time>2018-07-22T08:58:32Z</time>
      </trkpt>
      <trkpt lat="63.850706926186" lon="20.314013759404">
        <ele>56.2</ele>
        <time>2018-07-22T08:58:38Z</time>
      </trkpt>
      <trkpt lat="63.850723522348" lon="20.314345347368">
        <ele>56.8</ele>
        <time>2018-07-22T08:58:44Z</time>
      </trkpt>
      <trkpt lat="63.850737939216" lon="20.314452216593">
        <ele>56.8</ele>
        <time>2018-07-22T08:58:46Z</time>
      </trkpt>
      <trkpt lat="63.850791164281" lon="20.314690178734">
        <ele>56.8</ele>
        <time>2018-07-22T08:58:52Z</time>
      </trkpt>
      <trkpt lat="63.850906750682" lon="20.314775422657">
        <ele>56.4</ele>
        <time>2018-07-22T08:58:58Z</time>
      </trkpt>
      <trkpt lat="63.851052595742" lon="20.314815907234">
        <ele>56.4</ele>
        <time>2018-07-22T08:59:04Z</time>
      </trkpt>
      <trkpt lat="63.851214031136" lon="20.314852117042">
        <ele>56.6</ele>
        <time>2018-07-22T08:59:10Z</time>
      </trkpt>
      <trkpt lat="63.851383094059" lon="20.314896038198">
        <ele>56.2</ele>
        <time>2018-07-22T08:59:16Z</time>
      </trkpt>
      <trkpt lat="63.851427685767" lon="20.314940043173">
        <ele>56.2</ele>
        <time>2018-07-22T08:59:18Z</time>
      </trkpt>
      <trkpt lat="63.851433720735" lon="20.315063927655">
        <ele>56.4</ele>
        <time>2018-07-22T08:59:20Z</time>
      </trkpt>
      <trkpt lat="63.851401869515" lon="20.315432563617">
        <ele>56.4</ele>
        <time>2018-07-22T08:59:26Z</time>
      </trkpt>
      <trkpt lat="63.851406898655" lon="20.31552032211">
        <ele>56.4</ele>
        <time>2018-07-22T08:59:28Z</time>
      </trkpt>
      <trkpt lat="63.851553917181" lon="20.315627526611">
        <ele>56.2</ele>
        <time>2018-07-22T08:59:34Z</time>
      </trkpt>
      <trkpt lat="63.851686015925" lon="20.315714111638">
        <ele>55.8</ele>
        <time>2018-07-22T08:59:39Z</time>
      </trkpt>
      <trkpt lat="63.851854659753" lon="20.315770773282">
        <ele>56.2</ele>
        <time>2018-07-22T08:59:45Z</time>
      </trkpt>
      <trkpt lat="63.85201332912" lon="20.3157809992">
        <ele>56.4</ele>
        <time>2018-07-22T08:59:51Z</time>
      </trkpt>
      <trkpt lat="63.852095387921" lon="20.315879235068">
        <ele>57</ele>
        <time>2018-07-22T08:59:55Z</time>
      </trkpt>
      <trkpt lat="63.852247687044" lon="20.315881582">
        <ele>57.2</ele>
        <time>2018-07-22T09:00:01Z</time>
      </trkpt>
      <trkpt lat="63.852338714478" lon="20.316012255821">
        <ele>56.2</ele>
        <time>2018-07-22T09:00:06Z</time>
      </trkpt>
      <trkpt lat="63.852327985646" lon="20.316304448855">
        <ele>56.2</ele>
        <time>2018-07-22T09:00:12Z</time>
      </trkpt>
      <trkpt lat="63.852309880742" lon="20.316574513673">
        <ele>56.6</ele>
        <time>2018-07-22T09:00:18Z</time>
      </trkpt>
      <trkpt lat="63.852291105286" lon="20.31685472059">
        <ele>56.4</ele>
        <time>2018-07-22T09:00:24Z</time>
      </trkpt>
      <trkpt lat="63.852290267096" lon="20.317236599954">
        <ele>56.8</ele>
        <time>2018-07-22T09:00:30Z</time>
      </trkpt>
      <trkpt lat="63.85226897707" lon="20.317667261976">
        <ele>56.4</ele>
        <time>2018-07-22T09:00:38Z</time>
      </trkpt>
      <trkpt lat="63.852222457525" lon="20.31801309917">
        <ele>57</ele>
        <time>2018-07-22T09:00:44Z</time>
      </trkpt>
      <trkpt lat="63.852208040657" lon="20.318327588058">
        <ele>57.6</ele>
        <time>2018-07-22T09:00:50Z</time>
      </trkpt>
      <trkpt lat="63.852177362903" lon="20.318606956785">
        <ele>57.4</ele>
        <time>2018-07-22T09:00:56Z</time>
      </trkpt>
      <trkpt lat="63.852217512204" lon="20.318922032406">
        <ele>56.4</ele>
        <time>2018-07-22T09:01:02Z</time>
      </trkpt>
      <trkpt lat="63.852248357596" lon="20.319261080261">
        <ele>56</ele>
        <time>2018-07-22T09:01:07Z</time>
      </trkpt>
      <trkpt lat="63.852282974843" lon="20.31971713944">
        <ele>55.6</ele>
        <time>2018-07-22T09:01:12Z</time>
      </trkpt>
      <trkpt lat="63.852323543239" lon="20.320176383741">
        <ele>55</ele>
        <time>2018-07-22T09:01:18Z</time>
      </trkpt>
      <trkpt lat="63.852322788868" lon="20.320597909492">
        <ele>55.2</ele>
        <time>2018-07-22T09:01:24Z</time>
      </trkpt>
      <trkpt lat="63.852300660652" lon="20.320958834106">
        <ele>54.8</ele>
        <time>2018-07-22T09:01:29Z</time>
      </trkpt>
      <trkpt lat="63.852285992327" lon="20.321354878881">
        <ele>54.2</ele>
        <time>2018-07-22T09:01:35Z</time>
      </trkpt>
      <trkpt lat="63.852275431133" lon="20.321728711621">
        <ele>54.2</ele>
        <time>2018-07-22T09:01:41Z</time>
      </trkpt>
      <trkpt lat="63.852250117795" lon="20.32207412972">
        <ele>54.8</ele>
        <time>2018-07-22T09:01:47Z</time>
      </trkpt>
      <trkpt lat="63.852222373706" lon="20.322406388236">
        <ele>55.6</ele>
        <time>2018-07-22T09:01:53Z</time>
      </trkpt>
      <trkpt lat="63.852203346793" lon="20.32260554218">
        <ele>56</ele>
        <time>2018-07-22T09:01:57Z</time>
      </trkpt>
      <trkpt lat="63.852162778397" lon="20.322877367197">
        <ele>57</ele>
        <time>2018-07-22T09:02:03Z</time>
      </trkpt>
      <trkpt lat="63.852105613839" lon="20.323128237464">
        <ele>57.6</ele>
        <time>2018-07-22T09:02:09Z</time>
      </trkpt>
      <trkpt lat="63.852048281643" lon="20.323368462718">
        <ele>57.8</ele>
        <time>2018-07-22T09:02:15Z</time>
      </trkpt>
      <trkpt lat="63.852033697137" lon="20.323457059401">
        <ele>58.2</ele>
        <time>2018-07-22T09:02:17Z</time>
      </trkpt>
      <trkpt lat="63.852019615545" lon="20.323648921092">
        <ele>59</ele>
        <time>2018-07-22T09:02:23Z</time>
      </trkpt>
      <trkpt lat="63.852029925282" lon="20.323747240779">
        <ele>59.4</ele>
        <time>2018-07-22T09:02:25Z</time>
      </trkpt>
      <trkpt lat="63.852031517843" lon="20.324014707208">
        <ele>60.2</ele>
        <time>2018-07-22T09:02:31Z</time>
      </trkpt>
      <trkpt lat="63.852034200051" lon="20.324051839025">
        <ele>60.6</ele>
        <time>2018-07-22T09:02:32Z</time>
      </trkpt>
      <trkpt lat="63.852026488703" lon="20.324312013201">
        <ele>61</ele>
        <time>2018-07-22T09:02:38Z</time>
      </trkpt>
      <trkpt lat="63.85199069799" lon="20.324589957005">
        <ele>61.2</ele>
        <time>2018-07-22T09:02:44Z</time>
      </trkpt>
      <trkpt lat="63.851951722155" lon="20.324908553024">
        <ele>61.6</ele>
        <time>2018-07-22T09:02:50Z</time>
      </trkpt>
      <trkpt lat="63.851933784889" lon="20.3252106367">
        <ele>61.8</ele>
        <time>2018-07-22T09:02:56Z</time>
      </trkpt>
      <trkpt lat="63.851927247007" lon="20.32556686745">
        <ele>61.8</ele>
        <time>2018-07-22T09:03:02Z</time>
      </trkpt>
      <trkpt lat="63.851911572854" lon="20.3259482439">
        <ele>61.8</ele>
        <time>2018-07-22T09:03:08Z</time>
      </trkpt>
      <trkpt lat="63.851883325851" lon="20.326306570125">
        <ele>61.8</ele>
        <time>2018-07-22T09:03:14Z</time>
      </trkpt>
      <trkpt lat="63.851882152385" lon="20.326715103931">
        <ele>62</ele>
        <time>2018-07-22T09:03:20Z</time>
      </trkpt>
      <trkpt lat="63.851922301686" lon="20.327096899476">
        <ele>62</ele>
        <time>2018-07-22T09:03:26Z</time>
      </trkpt>
      <trkpt lat="63.851930935043" lon="20.327428152164">
        <ele>62.2</ele>
        <time>2018-07-22T09:03:32Z</time>
      </trkpt>
      <trkpt lat="63.8519647141" lon="20.327768373485">
        <ele>62.2</ele>
        <time>2018-07-22T09:03:38Z</time>
      </trkpt>
      <trkpt lat="63.851979885339" lon="20.328115551783">
        <ele>62.2</ele>
        <time>2018-07-22T09:03:44Z</time>
      </trkpt>
      <trkpt lat="63.852014586405" lon="20.328395674881">
        <ele>62.4</ele>
        <time>2018-07-22T09:03:50Z</time>
      </trkpt>
      <trkpt lat="63.852137716516" lon="20.328468345954">
        <ele>62.4</ele>
        <time>2018-07-22T09:03:56Z</time>
      </trkpt>
      <trkpt lat="63.852291189105" lon="20.3284795777">
        <ele>62.2</ele>
        <time>2018-07-22T09:04:02Z</time>
      </trkpt>
      <trkpt lat="63.85245840801" lon="20.328517128612">
        <ele>61.8</ele>
        <time>2018-07-22T09:04:08Z</time>
      </trkpt>
      <trkpt lat="63.852623196164" lon="20.328584770545">
        <ele>62</ele>
        <time>2018-07-22T09:04:14Z</time>
      </trkpt>
      <trkpt lat="63.852768705948" lon="20.328621567086">
        <ele>61.6</ele>
        <time>2018-07-22T09:04:20Z</time>
      </trkpt>
      <trkpt lat="63.852916395026" lon="20.328669260097">
        <ele>61.6</ele>
        <time>2018-07-22T09:04:26Z</time>
      </trkpt>
      <trkpt lat="63.853053774367" lon="20.328709828493">
        <ele>61.2</ele>
        <time>2018-07-22T09:04:32Z</time>
      </trkpt>
      <trkpt lat="63.853192997726" lon="20.328715779642">
        <ele>61.2</ele>
        <time>2018-07-22T09:04:38Z</time>
      </trkpt>
      <trkpt lat="63.85321529358" lon="20.328724077723">
        <ele>60.2</ele>
        <time>2018-07-22T09:04:39Z</time>
      </trkpt>
      <trkpt lat="63.853364407581" lon="20.328756850952">
        <ele>60.4</ele>
        <time>2018-07-22T09:04:45Z</time>
      </trkpt>
      <trkpt lat="63.853543947879" lon="20.328790462371">
        <ele>60.4</ele>
        <time>2018-07-22T09:04:51Z</time>
      </trkpt>
      <trkpt lat="63.853725583652" lon="20.328821978315">
        <ele>60.8</ele>
        <time>2018-07-22T09:04:57Z</time>
      </trkpt>
      <trkpt lat="63.853874530015" lon="20.328811165664">
        <ele>60.2</ele>
        <time>2018-07-22T09:05:03Z</time>
      </trkpt>
      <trkpt lat="63.854014507745" lon="20.328867911127">
        <ele>59.6</ele>
        <time>2018-07-22T09:05:09Z</time>
      </trkpt>
      <trkpt lat="63.854140571521" lon="20.328924991866">
        <ele>59.8</ele>
        <time>2018-07-22T09:05:15Z</time>
      </trkpt>
      <trkpt lat="63.854331343565" lon="20.328981737329">
        <ele>59.4</ele>
        <time>2018-07-22T09:05:21Z</time>
      </trkpt>
      <trkpt lat="63.854463526128" lon="20.329026580494">
        <ele>59.4</ele>
        <time>2018-07-22T09:05:27Z</time>
      </trkpt>
      <trkpt lat="63.854663099167" lon="20.329098413377">
        <ele>59.4</ele>
        <time>2018-07-22T09:05:33Z</time>
      </trkpt>
      <trkpt lat="63.854835766307" lon="20.329108974571">
        <ele>59</ele>
        <time>2018-07-22T09:05:39Z</time>
      </trkpt>
      <trkpt lat="63.854956381848" lon="20.328966817547">
        <ele>58.8</ele>
        <time>2018-07-22T09:05:45Z</time>
      </trkpt>
      <trkpt lat="63.855009690732" lon="20.328648556804">
        <ele>58.6</ele>
        <time>2018-07-22T09:05:51Z</time>
      </trkpt>
      <trkpt lat="63.855047074006" lon="20.328288135104">
        <ele>58.6</ele>
        <time>2018-07-22T09:05:57Z</time>
      </trkpt>
      <trkpt lat="63.855082529443" lon="20.327879014565">
        <ele>59.2</ele>
        <time>2018-07-22T09:06:03Z</time>
      </trkpt>
      <trkpt lat="63.855109938256" lon="20.327499985047">
        <ele>58.8</ele>
        <time>2018-07-22T09:06:09Z</time>
      </trkpt>
      <trkpt lat="63.855118990708" lon="20.327138138424">
        <ele>59.2</ele>
        <time>2018-07-22T09:06:15Z</time>
      </trkpt>
      <trkpt lat="63.855112452826" lon="20.326626255791">
        <ele>59.4</ele>
        <time>2018-07-22T09:06:23Z</time>
      </trkpt>
    </trkseg>
  </trk>
</gpx>